South Beach, Oregon
Current Conditions -  °F | °C
As of 7:15 PM on Saturday 25 Oct 2014 (Local Time) from KONP Reporting Station
Light Rain Light Rain  
Wind Chill: 54°   Ceiling: 3500
Heat Index: 54°   Visibility: 7mi
Dew Point: 50°   Wind: 14mph
Humidity: 88%   Direction: 220°SW
Pressure: 29.86"   Gusts: 21mph
Location:  44.61°N, 124.05°W
Report Text: KONP 260215Z AUTO 22012G18KT 7SM -RA SCT005 SCT010 BKN035 12/10 A2986 RMK AO2
Loading
Personal Weather Stations






























Interactive Weather Map
Tropical Storm Tracking
New forecast layout! Learn more

10-Day Weather Forecast

Advertisements
Track Severe Weather on mobile